Time;durP1;ratioP1;P1;durP2;ratioP2;P2;SDS_P1;SDS_P2;PMS_P1;PMS_P2;Temp;Humidity;BMP_temperature;BMP_pressure;BME280_temperature;BME280_humidity;BME280_pressure;Samples;Min_cycle;Max_cycle;Signal;HPM_P1;HPM_P2
2022/07/26 00:04:54;;;;;;;1.10;0.55;;;;;;;18.51;100.00;101249.53;10519308;28;20066;-79
2022/07/26 00:09:55;;;;;;;0.10;0.10;;;;;;;18.45;100.00;101249.53;10498937;28;20044;-79
2022/07/26 00:14:57;;;;;;;0.45;0.45;;;;;;;18.29;100.00;101253.91;10500783;28;20059;-79
2022/07/26 00:19:59;;;;;;;0.00;0.00;;;;;;;18.21;100.00;101246.06;10509111;28;20048;-78
2022/07/26 00:25:06;;;;;;;0.80;0.52;;;;;;;18.27;100.00;101259.13;10480374;28;20056;-78
2022/07/26 00:30:08;;;;;;;0.15;0.10;;;;;;;18.35;100.00;101257.41;10511628;28;20062;-78
2022/07/26 00:35:10;;;;;;;0.43;0.35;;;;;;;18.35;100.00;101270.44;10512571;28;20040;-79
2022/07/26 00:40:13;;;;;;;0.43;0.10;;;;;;;18.27;100.00;101266.97;10497977;28;20411;-78
2022/07/26 00:45:16;;;;;;;0.20;0.10;;;;;;;18.16;100.00;101266.06;10505042;28;20048;-78
2022/07/26 00:50:18;;;;;;;2.80;0.85;;;;;;;18.08;100.00;101264.34;10521779;28;20528;-78
2022/07/26 00:55:20;;;;;;;0.10;0.10;;;;;;;18.18;100.00;101261.72;10496894;28;20488;-78
2022/07/26 01:00:26;;;;;;;0.00;0.00;;;;;;;17.99;100.00;101266.94;10520395;28;20380;-79
2022/07/26 01:05:28;;;;;;;0.70;0.30;;;;;;;18.06;100.00;101268.66;10501998;28;20047;-79
2022/07/26 01:10:30;;;;;;;0.10;0.10;;;;;;;18.15;100.00;101256.50;10513517;28;20483;-78
2022/07/26 01:15:31;;;;;;;0.00;0.00;;;;;;;18.04;100.00;101260.00;10502097;28;20049;-79
2022/07/26 01:20:33;;;;;;;0.00;0.00;;;;;;;18.16;100.00;101253.91;10498067;28;20094;-79
2022/07/26 01:25:36;;;;;;;0.40;0.40;;;;;;;18.08;100.00;101251.28;10474790;28;20106;-79
2022/07/26 01:30:43;;;;;;;0.82;0.65;;;;;;;18.18;100.00;101248.69;10490278;28;20056;-80
2022/07/26 01:35:45;;;;;;;0.65;0.65;;;;;;;18.11;100.00;101244.34;10500823;28;20055;-79
2022/07/26 01:40:47;;;;;;;0.20;0.20;;;;;;;17.99;100.00;101251.28;10467215;28;20063;-79
2022/07/26 01:45:49;;;;;;;0.10;0.10;;;;;;;18.18;100.00;101243.47;10502549;28;20407;-79
2022/07/26 01:50:51;;;;;;;0.10;0.00;;;;;;;18.00;100.00;101244.34;10503729;28;20496;-79
2022/07/26 01:55:52;;;;;;;0.95;0.30;;;;;;;18.01;100.00;101249.56;10494276;28;20059;-78
2022/07/26 02:00:54;;;;;;;0.00;0.00;;;;;;;18.17;100.00;101244.34;10498593;28;20063;-78
2022/07/26 02:05:55;;;;;;;0.63;0.10;;;;;;;18.04;100.00;101257.41;10513393;28;20052;-78
2022/07/26 02:11:00;;;;;;;0.00;0.00;;;;;;;18.00;100.00;101258.25;10518466;28;20036;-79
2022/07/26 02:16:12;;;;;;;0.28;0.20;;;;;;;18.05;100.00;101266.06;10518711;28;20040;-79
2022/07/26 02:21:14;;;;;;;0.80;0.30;;;;;;;17.99;100.00;101273.88;10470051;28;20136;-79
2022/07/26 02:26:16;;;;;;;0.20;0.20;;;;;;;17.99;100.00;101271.28;10493052;28;20052;-79
2022/07/26 02:31:17;;;;;;;0.00;0.00;;;;;;;17.97;100.00;101281.72;10507005;28;20056;-80
2022/07/26 02:36:21;;;;;;;0.85;0.57;;;;;;;17.97;100.00;101276.50;10523217;28;20051;-78
2022/07/26 02:41:23;;;;;;;0.10;0.03;;;;;;;18.03;100.00;101278.22;10502522;28;20063;-78
2022/07/26 02:46:25;;;;;;;0.03;0.03;;;;;;;17.99;100.00;101277.34;10514274;28;20484;-79
2022/07/26 02:51:27;;;;;;;0.00;0.00;;;;;;;18.00;100.00;101280.84;10506168;28;20514;-78
2022/07/26 02:56:29;;;;;;;0.63;0.20;;;;;;;17.91;100.00;101289.47;10492619;28;20048;-79
2022/07/26 03:01:30;;;;;;;2.83;0.22;;;;;;;18.02;100.00;101293.00;10509560;28;20128;-79
2022/07/26 03:06:32;;;;;;;0.20;0.20;;;;;;;17.82;100.00;101305.13;10521174;28;20056;-78
2022/07/26 03:11:34;;;;;;;0.00;0.00;;;;;;;17.88;100.00;101307.72;10478066;28;20037;-78
2022/07/26 03:16:36;;;;;;;0.20;0.13;;;;;;;17.82;100.00;101308.56;10497882;28;20045;-78
2022/07/26 03:21:37;;;;;;;0.20;0.10;;;;;;;17.75;100.00;101315.53;10495817;28;20488;-79
2022/07/26 03:26:39;;;;;;;0.03;0.03;;;;;;;17.74;100.00;101324.22;10484479;28;20063;-78
2022/07/26 03:31:40;;;;;;;0.47;0.40;;;;;;;17.74;100.00;101326.81;10505745;28;20055;-78
2022/07/26 03:36:45;;;;;;;0.22;0.15;;;;;;;17.85;100.00;101333.78;10478398;28;20045;-79
2022/07/26 03:41:46;;;;;;;0.00;0.00;;;;;;;18.02;100.00;101334.72;10506508;28;20059;-79
2022/07/26 03:46:48;;;;;;;1.02;0.40;;;;;;;17.85;100.00;101346.81;10528998;28;20077;-79
2022/07/26 03:51:50;;;;;;;0.40;0.40;;;;;;;17.90;100.00;101343.34;10491043;28;20039;-79
2022/07/26 03:56:51;;;;;;;0.17;0.17;;;;;;;18.03;100.00;101346.91;10498662;28;20051;-78
2022/07/26 04:01:53;;;;;;;0.05;0.05;;;;;;;17.97;100.00;101359.91;10509727;28;20132;-78
2022/07/26 04:06:55;;;;;;;0.05;0.00;;;;;;;18.10;100.00;101357.34;10489155;28;20081;-78
2022/07/26 04:11:57;;;;;;;0.05;0.00;;;;;;;18.08;100.00;101363.41;10496489;28;20468;-78
2022/07/26 04:16:58;;;;;;;0.20;0.20;;;;;;;18.08;100.00;101360.81;10510249;28;20275;-78
2022/07/26 04:22:00;;;;;;;0.20;0.20;;;;;;;18.31;100.00;101361.72;10507698;28;20050;-77
2022/07/26 04:27:02;;;;;;;1.08;0.73;;;;;;;18.14;100.00;101370.38;10509747;28;20032;-78
2022/07/26 04:32:04;;;;;;;1.25;0.50;;;;;;;18.12;100.00;101382.53;10484135;28;20439;-78
2022/07/26 04:37:05;;;;;;;0.20;0.20;;;;;;;18.06;100.00;101383.38;10480626;28;20065;-78
2022/07/26 04:42:07;;;;;;;0.43;0.30;;;;;;;17.90;100.00;101387.66;10484985;28;20044;-78
2022/07/26 04:47:09;;;;;;;0.70;0.10;;;;;;;17.91;100.00;101378.97;10511406;28;20555;-77
2022/07/26 04:52:10;;;;;;;0.32;0.32;;;;;;;18.01;100.00;101390.34;10516510;28;20407;-77
2022/07/26 04:57:12;;;;;;;0.05;0.05;;;;;;;17.99;100.00;101399.88;10496057;28;20040;-77
2022/07/26 05:02:14;;;;;;;1.08;0.75;;;;;;;18.08;100.00;101399.91;10491131;28;20094;-78
2022/07/26 05:07:16;;;;;;;0.22;0.10;;;;;;;18.26;100.00;101406.03;10494698;28;20063;-77
2022/07/26 05:12:17;;;;;;;0.22;0.15;;;;;;;18.42;100.00;101411.28;10492801;28;20095;-77
2022/07/26 05:17:19;;;;;;;0.30;0.28;;;;;;;18.48;100.00;101400.88;10494955;28;20516;-78
2022/07/26 05:22:22;;;;;;;0.43;0.40;;;;;;;18.41;100.00;101404.34;10495369;28;20444;-77
2022/07/26 05:27:23;;;;;;;1.08;0.98;;;;;;;18.53;100.00;101412.16;10495669;28;20483;-77
2022/07/26 05:32:27;;;;;;;0.52;0.52;;;;;;;18.60;100.00;101420.88;10495039;28;20044;-77
2022/07/26 05:37:28;;;;;;;0.35;0.20;;;;;;;18.65;100.00;101421.75;10476024;28;20061;-76
2022/07/26 05:42:30;;;;;;;0.00;0.00;;;;;;;18.68;100.00;101420.00;10494663;28;20041;-77
2022/07/26 05:47:32;;;;;;;0.28;0.28;;;;;;;18.57;100.00;101426.97;10494762;28;20047;-77
2022/07/26 05:52:33;;;;;;;0.57;0.40;;;;;;;18.69;100.00;101424.34;10502330;28;20043;-77
2022/07/26 05:57:35;;;;;;;0.40;0.38;;;;;;;18.68;100.00;101424.38;10476231;28;20094;-77
2022/07/26 06:02:37;;;;;;;0.35;0.20;;;;;;;18.91;100.00;101428.72;10496269;28;20041;-77
2022/07/26 06:07:39;;;;;;;1.17;0.55;;;;;;;19.01;100.00;101423.53;10511405;28;20059;-77
2022/07/26 06:12:40;;;;;;;0.20;0.20;;;;;;;19.10;100.00;101432.22;10512137;28;20066;-77
2022/07/26 06:17:42;;;;;;;0.98;0.43;;;;;;;19.23;100.00;101428.72;10517614;28;20487;-77
2022/07/26 06:22:44;;;;;;;0.55;0.55;;;;;;;19.57;100.00;101418.16;10520835;28;20050;-77
2022/07/26 06:27:45;;;;;;;0.35;0.30;;;;;;;19.88;100.00;101410.25;10535480;28;20048;-78
2022/07/26 06:32:47;;;;;;;0.38;0.17;;;;;;;19.65;100.00;101416.41;10495923;28;20055;-77
2022/07/26 06:37:49;;;;;;;0.10;0.10;;;;;;;19.01;100.00;101431.34;10512967;28;20044;-77
2022/07/26 06:42:51;;;;;;;0.65;0.55;;;;;;;19.24;100.00;101427.84;10514073;28;20051;-77
2022/07/26 06:47:53;;;;;;;0.60;0.60;;;;;;;19.40;100.00;101426.06;10513609;28;20129;-77
2022/07/26 06:52:54;;;;;;;1.38;0.95;;;;;;;19.52;100.00;101422.56;10492181;28;20041;-77
2022/07/26 06:57:56;;;;;;;1.38;0.30;;;;;;;19.51;100.00;101428.66;10499683;28;20055;-77
2022/07/26 07:02:58;;;;;;;0.20;0.20;;;;;;;19.40;100.00;101446.09;10504834;28;20041;-77
2022/07/26 07:07:59;;;;;;;0.17;0.10;;;;;;;18.45;100.00;101461.75;10490424;28;20048;-76
2022/07/26 07:13:02;;;;;;;0.20;0.10;;;;;;;18.11;100.00;101485.09;10486350;28;20394;-76
2022/07/26 07:18:04;;;;;;;0.20;0.10;;;;;;;17.72;100.00;101503.13;10484010;28;20052;-76
2022/07/26 07:23:06;;;;;;;1.45;1.35;;;;;;;17.46;100.00;101531.63;10485867;28;20059;-76
2022/07/26 07:28:08;;;;;;;0.00;0.00;;;;;;;17.46;100.00;101547.25;10495971;28;20044;-77
2022/07/26 07:33:12;;;;;;;0.25;0.22;;;;;;;17.70;100.00;101562.19;10491605;28;20048;-76
2022/07/26 07:38:23;;;;;;;0.25;0.03;;;;;;;17.70;100.00;101571.75;10495549;28;20076;-76
2022/07/26 07:43:25;;;;;;;0.20;0.20;;;;;;;17.79;100.00;101581.34;10497043;28;20044;-76
2022/07/26 07:48:27;;;;;;;0.20;0.00;;;;;;;17.57;100.00;101599.44;10496456;28;20114;-76
2022/07/26 07:53:29;;;;;;;0.08;0.08;;;;;;;17.24;100.00;101613.88;10503594;28;20078;-76
2022/07/26 07:58:31;;;;;;;0.00;0.00;;;;;;;17.16;100.00;101615.56;10489691;28;20056;-76
2022/07/26 08:03:33;;;;;;;0.00;0.00;;;;;;;17.03;100.00;101610.22;10480342;28;20052;-76
2022/07/26 08:08:39;;;;;;;0.08;0.08;;;;;;;17.46;100.00;101612.38;10497782;28;20044;-76
2022/07/26 08:13:43;;;;;;;0.00;0.00;;;;;;;17.66;100.00;101622.97;10489520;28;20684;-76
2022/07/26 08:18:48;;;;;;;0.20;0.10;;;;;;;17.29;100.00;101628.72;10497529;28;20123;-76
2022/07/26 08:23:58;;;;;;;0.00;0.00;;;;;;;17.55;100.00;101635.00;10491363;28;20055;-75
2022/07/26 08:29:00;;;;;;;0.00;0.00;;;;;;;17.29;100.00;101644.34;10491772;28;20052;-75
2022/07/26 08:34:02;;;;;;;0.10;0.00;;;;;;;17.23;100.00;101669.47;10487690;28;20044;-76
2022/07/26 08:39:04;;;;;;;0.25;0.17;;;;;;;17.03;100.00;101683.09;10487780;28;20052;-77
2022/07/26 08:44:07;;;;;;;0.00;0.00;;;;;;;16.89;100.00;101758.41;10488821;28;20583;-76
2022/07/26 08:49:10;;;;;;;0.00;0.00;;;;;;;16.67;100.00;101752.03;10493515;28;20052;-78
2022/07/26 08:54:14;;;;;;;0.00;0.00;;;;;;;16.69;100.00;101776.34;10491225;28;20037;-78
2022/07/26 08:59:17;;;;;;;0.00;0.00;;;;;;;16.84;100.00;101778.28;10492953;28;20032;-77
2022/07/26 09:04:27;;;;;;;0.47;0.20;;;;;;;17.05;100.00;101782.94;10496349;28;20043;-77
2022/07/26 09:09:56;;;;;;;0.00;0.00;;;;;;;17.27;100.00;101788.41;10491941;28;20045;-77
2022/07/26 09:14:59;;;;;;;0.00;0.00;;;;;;;17.53;100.00;101767.00;10495441;28;20045;-78
2022/07/26 09:20:19;;;;;;;0.00;0.00;;;;;;;17.63;100.00;101748.00;10482897;28;20048;-78
2022/07/26 09:25:40;;;;;;;0.05;0.05;;;;;;;17.75;100.00;101726.41;10482533;28;20080;-78
2022/07/26 09:30:54;;;;;;;0.20;0.10;;;;;;;18.06;100.00;101732.78;10485052;28;20135;-78
2022/07/26 09:36:04;;;;;;;0.00;0.00;;;;;;;18.16;100.00;101753.72;10493975;28;20044;-77
2022/07/26 09:41:34;;;;;;;0.00;0.00;;;;;;;18.15;100.00;101757.19;10485078;28;20036;-77
2022/07/26 09:46:53;;;;;;;0.13;0.13;;;;;;;17.87;100.00;101756.91;10486335;28;20143;-77
2022/07/26 09:51:55;;;;;;;0.10;0.03;;;;;;;18.23;100.00;101755.50;10490426;28;20492;-77
2022/07/26 09:56:58;;;;;;;1.42;0.38;;;;;;;18.49;100.00;101754.84;10482612;28;20040;-77
2022/07/26 10:02:00;;;;;;;0.30;0.17;;;;;;;18.84;100.00;101733.28;10481672;28;20060;-77
2022/07/26 10:07:02;;;;;;;0.80;0.55;;;;;;;18.55;100.00;101728.78;10483543;28;20096;-78
2022/07/26 10:12:07;;;;;;;1.67;0.20;;;;;;;18.73;100.00;101711.47;10490785;28;20123;-77
2022/07/26 10:17:27;;;;;;;1.20;0.05;;;;;;;19.10;100.00;101696.00;10491960;28;20045;-78
2022/07/26 10:22:46;;;;;;;0.00;0.00;;;;;;;18.95;100.00;101695.03;10481133;28;20048;-78
2022/07/26 10:27:50;;;;;;;0.15;0.00;;;;;;;19.08;100.00;101700.34;10475161;28;20052;-78
2022/07/26 10:33:00;;;;;;;0.10;0.08;;;;;;;19.44;100.00;101701.28;10490534;28;20045;-78
2022/07/26 10:38:05;;;;;;;0.00;0.00;;;;;;;19.61;100.00;101715.25;10494014;28;20541;-78
2022/07/26 10:43:11;;;;;;;0.85;0.85;;;;;;;19.30;100.00;101691.69;10481859;28;20040;-78
2022/07/26 10:48:33;;;;;;;0.00;0.00;;;;;;;19.78;100.00;101703.94;10490321;28;20056;-77
2022/07/26 10:53:35;;;;;;;0.00;0.00;;;;;;;19.38;100.00;101709.13;10480766;28;20052;-77
2022/07/26 10:58:41;;;;;;;0.10;0.10;;;;;;;18.86;100.00;101689.78;10479987;28;20043;-77
2022/07/26 11:03:47;;;;;;;0.20;0.20;;;;;;;18.62;100.00;101686.19;10486696;28;20090;-77
2022/07/26 11:08:48;;;;;;;0.00;0.00;;;;;;;18.38;100.00;101697.38;10483381;28;20032;-77
2022/07/26 11:13:50;;;;;;;0.10;0.10;;;;;;;18.20;100.00;101719.00;10488100;28;20048;-77
2022/07/26 11:18:51;;;;;;;0.00;0.00;;;;;;;17.37;100.00;101738.19;10488876;28;20044;-77
2022/07/26 11:24:01;;;;;;;0.20;0.20;;;;;;;17.62;100.00;101774.91;10464096;28;20416;-80
2022/07/26 11:29:02;;;;;;;0.35;0.20;;;;;;;17.56;100.00;101772.25;10483693;28;20056;-78
2022/07/26 11:34:16;;;;;;;0.00;0.00;;;;;;;17.83;100.00;101770.78;10485557;28;20045;-79
2022/07/26 11:39:31;;;;;;;0.65;0.10;;;;;;;18.01;100.00;101776.19;10469568;28;20705;-78
2022/07/26 11:44:34;;;;;;;0.00;0.00;;;;;;;18.31;100.00;101779.91;10488185;28;20045;-78
2022/07/26 11:49:35;;;;;;;0.13;0.10;;;;;;;18.23;100.00;101752.91;10489204;28;20132;-78
2022/07/26 11:54:57;;;;;;;0.00;0.00;;;;;;;18.32;100.00;101755.59;10495982;28;20036;-78
2022/07/26 11:59:59;;;;;;;0.00;0.00;;;;;;;18.47;100.00;101756.56;10482314;28;20048;-78
2022/07/26 12:05:21;;;;;;;0.00;0.00;;;;;;;18.67;100.00;101756.69;10488530;28;20053;-78
2022/07/26 12:10:24;;;;;;;0.10;0.05;;;;;;;19.84;100.00;101740.59;10497621;28;20111;-78
2022/07/26 12:15:26;;;;;;;0.08;0.00;;;;;;;20.73;100.00;101723.06;10485503;28;20037;-79
2022/07/26 12:20:27;;;;;;;0.00;0.00;;;;;;;20.05;100.00;101715.31;10492449;28;20123;-78
2022/07/26 12:25:29;;;;;;;0.05;0.05;;;;;;;19.95;100.00;101712.69;10492022;28;20369;-79
2022/07/26 12:30:34;;;;;;;0.50;0.20;;;;;;;20.16;100.00;101710.91;10487971;28;20068;-78
2022/07/26 12:35:36;;;;;;;0.95;0.68;;;;;;;19.81;100.00;101709.16;10469628;28;20048;-80
2022/07/26 12:40:41;;;;;;;0.00;0.00;;;;;;;19.00;100.00;101710.75;10483223;28;20043;-78
2022/07/26 12:45:43;;;;;;;0.30;0.15;;;;;;;19.07;100.00;101719.47;10485730;28;20048;-79
2022/07/26 12:50:44;;;;;;;0.00;0.00;;;;;;;19.27;100.00;101716.94;10470086;28;20139;-79
2022/07/26 12:55:46;;;;;;;0.00;0.00;;;;;;;19.46;100.00;101712.63;10463766;28;20052;-78
2022/07/26 13:00:48;;;;;;;0.13;0.13;;;;;;;19.53;100.00;101706.53;10487045;28;20047;-77
2022/07/26 13:05:49;;;;;;;0.00;0.00;;;;;;;20.30;100.00;101708.28;10483974;28;20087;-78
2022/07/26 13:10:51;;;;;;;0.00;0.00;;;;;;;19.89;100.00;101711.81;10488219;28;20500;-77
2022/07/26 13:16:00;;;;;;;0.00;0.00;;;;;;;20.09;100.00;101704.84;10479843;28;20044;-78
2022/07/26 13:21:01;;;;;;;0.00;0.00;;;;;;;20.42;100.00;101702.16;10483784;28;20110;-78
2022/07/26 13:26:03;;;;;;;1.13;0.10;;;;;;;20.51;100.00;101693.41;10475916;28;20492;-77
2022/07/26 13:31:11;;;;;;;0.00;0.00;;;;;;;20.13;100.00;101700.47;10487358;28;20129;-78
2022/07/26 13:36:13;;;;;;;0.30;0.30;;;;;;;20.37;100.00;101698.66;10474310;28;20041;-78
2022/07/26 13:41:15;;;;;;;0.52;0.10;;;;;;;20.17;100.00;101701.34;10498644;28;20131;-78
2022/07/26 13:46:16;;;;;;;0.00;0.00;;;;;;;20.10;100.00;101705.69;10490213;28;20052;-78
2022/07/26 13:51:18;;;;;;;0.00;0.00;;;;;;;19.96;100.00;101709.22;10475245;28;20056;-78
2022/07/26 13:56:20;;;;;;;0.00;0.00;;;;;;;20.06;100.00;101704.84;10486970;28;20059;-78
2022/07/26 14:01:21;;;;;;;0.15;0.15;;;;;;;19.89;100.00;101725.78;10480523;28;20045;-78
2022/07/26 14:06:43;;;;;;;0.00;0.00;;;;;;;20.26;100.00;101723.13;10487028;28;20089;-78
2022/07/26 14:11:46;;;;;;;0.40;0.10;;;;;;;20.12;100.00;101720.50;10466964;28;20041;-79
2022/07/26 14:16:48;;;;;;;0.90;0.43;;;;;;;20.13;100.00;101722.25;10450215;28;20057;-79
2022/07/26 14:21:50;;;;;;;0.40;0.10;;;;;;;20.35;100.00;101727.47;10468432;28;20132;-79
2022/07/26 14:27:01;;;;;;;0.13;0.08;;;;;;;20.31;100.00;101735.31;10461267;28;20093;-78
2022/07/26 14:32:03;;;;;;;0.10;0.10;;;;;;;20.33;100.00;101734.44;10453083;28;20420;-78
2022/07/26 14:37:06;;;;;;;0.20;0.05;;;;;;;20.28;100.00;101736.19;10470312;28;20052;-78
2022/07/26 14:42:27;;;;;;;0.68;0.10;;;;;;;20.75;100.00;101731.75;10468577;28;20033;-79
2022/07/26 14:47:29;;;;;;;0.65;0.28;;;;;;;20.28;100.00;101739.72;10480068;28;20056;-78
2022/07/26 14:52:31;;;;;;;1.15;0.20;;;;;;;20.01;100.00;101737.97;10468460;28;20033;-78
2022/07/26 14:57:33;;;;;;;0.17;0.17;;;;;;;20.41;100.00;101747.53;10476897;28;20052;-78
2022/07/26 15:02:44;;;;;;;0.00;0.00;;;;;;;20.27;100.00;101735.34;10453396;28;20437;-79
2022/07/26 15:07:46;;;;;;;0.08;0.08;;;;;;;20.88;100.00;101743.97;10460162;28;20051;-78
2022/07/26 15:12:48;;;;;;;0.13;0.13;;;;;;;20.09;97.89;101745.81;10451849;28;20074;-79
2022/07/26 15:17:50;;;;;;;0.10;0.10;;;;;;;20.49;100.00;101747.50;10482966;28;20557;-78
2022/07/26 15:22:52;;;;;;;0.47;0.43;;;;;;;20.33;97.60;101739.69;10489850;28;20044;-78
2022/07/26 15:27:55;;;;;;;0.45;0.20;;;;;;;20.35;100.00;101747.53;10493489;28;20459;-78
2022/07/26 15:32:57;;;;;;;0.00;0.00;;;;;;;20.01;97.83;101747.53;10492203;28;20048;-78
2022/07/26 15:38:00;;;;;;;0.00;0.00;;;;;;;19.83;98.82;101746.66;10483921;28;20052;-78
2022/07/26 15:43:02;;;;;;;0.00;0.00;;;;;;;20.36;100.00;101739.69;10483689;28;20532;-78
2022/07/26 15:48:05;;;;;;;0.50;0.28;;;;;;;20.53;100.00;101737.03;10484932;28;20048;-78
2022/07/26 15:53:52;;;;;;;0.05;0.05;;;;;;;19.96;97.90;101740.59;10409435;28;20045;-78
2022/07/26 15:58:53;;;;;;;0.00;0.00;;;;;;;20.06;96.36;101740.59;10406006;28;20093;-78
2022/07/26 16:03:55;;;;;;;1.45;0.45;;;;;;;19.83;94.29;101749.28;10404818;28;20480;-78
2022/07/26 16:08:57;;;;;;;0.00;0.00;;;;;;;19.64;88.64;101758.81;10406805;28;20075;-78
2022/07/26 16:14:17;;;;;;;2.00;0.30;;;;;;;20.12;88.23;101751.91;10495406;28;20041;-78
2022/07/26 16:19:19;;;;;;;0.00;0.00;;;;;;;19.81;90.35;101751.00;10475284;28;20045;-79
2022/07/26 16:24:21;;;;;;;0.00;0.00;;;;;;;19.70;90.05;101755.31;10470023;28;20040;-78
2022/07/26 16:29:23;;;;;;;0.00;0.00;;;;;;;19.57;90.24;101747.47;10488644;28;20102;-78
2022/07/26 16:34:24;;;;;;;2.38;0.13;;;;;;;19.63;89.37;101747.47;10491173;28;20060;-78
2022/07/26 16:39:26;;;;;;;0.00;0.00;;;;;;;19.39;88.00;101760.53;10516258;28;20048;-79
2022/07/26 16:44:28;;;;;;;0.00;0.00;;;;;;;19.69;96.09;101756.22;10505975;28;20043;-78
2022/07/26 16:49:29;;;;;;;0.10;0.00;;;;;;;19.61;90.59;101757.09;10503701;28;20056;-78
2022/07/26 16:54:32;;;;;;;0.32;0.10;;;;;;;19.68;85.30;101754.47;10506270;28;20047;-79
2022/07/26 16:59:33;;;;;;;0.00;0.00;;;;;;;19.54;81.43;101750.09;10493888;28;20043;-78
2022/07/26 17:04:35;;;;;;;0.25;0.22;;;;;;;19.24;84.04;101761.31;10509218;28;20406;-78
2022/07/26 17:09:37;;;;;;;0.35;0.10;;;;;;;19.09;85.27;101764.75;10490599;28;20431;-78
2022/07/26 17:14:38;;;;;;;0.10;0.10;;;;;;;18.85;85.63;101756.78;10509444;28;20040;-78
2022/07/26 17:19:40;;;;;;;0.10;0.10;;;;;;;19.00;83.59;101749.91;10499339;28;20064;-78
2022/07/26 17:24:42;;;;;;;0.00;0.00;;;;;;;18.85;89.95;101755.91;10516552;28;20040;-78
2022/07/26 17:29:44;;;;;;;0.00;0.00;;;;;;;18.79;83.75;101761.09;10494313;28;20411;-78
2022/07/26 17:34:45;;;;;;;0.00;0.00;;;;;;;18.95;87.26;101757.72;10525190;28;20478;-78
2022/07/26 17:39:47;;;;;;;0.43;0.30;;;;;;;18.74;85.49;101768.00;10506721;28;20094;-78
2022/07/26 17:44:54;;;;;;;0.03;0.03;;;;;;;18.54;85.75;101780.06;10517840;28;20044;-79
2022/07/26 17:50:00;;;;;;;0.20;0.20;;;;;;;18.41;83.33;101783.47;10511593;28;20511;-78
2022/07/26 17:55:22;;;;;;;0.00;0.00;;;;;;;18.11;83.21;101760.63;10485007;28;20131;-78
2022/07/26 18:00:25;;;;;;;0.30;0.10;;;;;;;18.01;87.22;101776.19;10511698;28;20055;-77
2022/07/26 18:05:29;;;;;;;0.35;0.17;;;;;;;17.82;87.40;101789.91;10486278;28;20032;-77
2022/07/26 18:10:38;;;;;;;0.20;0.10;;;;;;;17.76;84.92;101801.13;10481646;28;20068;-77
2022/07/26 18:15:40;;;;;;;0.00;0.00;;;;;;;17.75;88.62;101802.88;10491620;28;20055;-78
2022/07/26 18:20:42;;;;;;;0.00;0.00;;;;;;;17.67;88.19;101791.47;10488723;28;20090;-77
2022/07/26 18:25:43;;;;;;;0.00;0.00;;;;;;;17.79;91.53;101805.50;10496612;28;20045;-78
2022/07/26 18:30:45;;;;;;;0.43;0.00;;;;;;;17.72;91.67;101808.03;10482722;28;20446;-77
2022/07/26 18:35:47;;;;;;;0.00;0.00;;;;;;;17.53;96.97;101813.91;10496875;28;20094;-77
2022/07/26 18:40:48;;;;;;;0.57;0.08;;;;;;;17.31;100.00;101810.16;10478752;28;20059;-77
2022/07/26 18:45:50;;;;;;;0.45;0.45;;;;;;;17.32;98.25;101801.50;10453928;28;20188;-77
2022/07/26 18:50:52;;;;;;;0.00;0.00;;;;;;;17.11;99.00;101803.84;10470761;28;20037;-77
2022/07/26 18:55:53;;;;;;;0.00;0.00;;;;;;;16.91;100.00;101803.53;10455993;28;20045;-78
2022/07/26 19:00:55;;;;;;;0.00;0.00;;;;;;;16.74;100.00;101810.25;10491491;28;20048;-78
2022/07/26 19:05:57;;;;;;;0.00;0.00;;;;;;;16.48;100.00;101809.00;10486906;28;20045;-77
2022/07/26 19:10:59;;;;;;;0.20;0.00;;;;;;;16.24;100.00;101803.38;10492204;28;20067;-77
2022/07/26 19:16:00;;;;;;;0.17;0.10;;;;;;;16.08;100.00;101823.91;10492584;28;20048;-77
2022/07/26 19:21:02;;;;;;;0.00;0.00;;;;;;;15.96;100.00;101831.50;10485526;28;20433;-77
2022/07/26 19:26:04;;;;;;;0.00;0.00;;;;;;;15.69;100.00;101836.16;10492631;28;20040;-78
2022/07/26 19:31:07;;;;;;;0.10;0.00;;;;;;;15.50;100.00;101842.69;10495058;28;20489;-77
2022/07/26 19:36:08;;;;;;;0.20;0.00;;;;;;;15.46;100.00;101853.84;10494581;28;20441;-77
2022/07/26 19:41:10;;;;;;;0.00;0.00;;;;;;;15.28;100.00;101859.53;10493670;28;20049;-77
2022/07/26 19:46:16;;;;;;;0.00;0.00;;;;;;;15.25;100.00;101864.69;10493073;28;20460;-77
2022/07/26 19:51:18;;;;;;;1.58;0.43;;;;;;;15.16;100.00;101864.47;10494841;28;20047;-77
2022/07/26 19:56:19;;;;;;;0.00;0.00;;;;;;;15.37;100.00;101879.66;10493059;28;20462;-77
2022/07/26 20:01:22;;;;;;;0.00;0.00;;;;;;;15.32;100.00;101889.03;10489729;28;20036;-77
2022/07/26 20:06:23;;;;;;;0.00;0.00;;;;;;;15.23;100.00;101887.13;10494294;28;20123;-77
2022/07/26 20:11:26;;;;;;;0.00;0.00;;;;;;;15.16;100.00;101891.28;10491197;28;20044;-77
2022/07/26 20:16:28;;;;;;;0.00;0.00;;;;;;;15.18;100.00;101902.59;10498292;28;20033;-77
2022/07/26 20:21:30;;;;;;;0.00;0.00;;;;;;;15.25;100.00;101906.22;10487939;28;20381;-77
2022/07/26 20:26:31;;;;;;;0.05;0.05;;;;;;;15.03;100.00;101910.00;10491804;28;20033;-77
2022/07/26 20:31:33;;;;;;;0.00;0.00;;;;;;;14.92;100.00;101909.75;10472069;28;20045;-78
2022/07/26 20:36:35;;;;;;;0.00;0.00;;;;;;;14.72;100.00;101914.47;10495935;28;20055;-78
2022/07/26 20:41:37;;;;;;;0.20;0.20;;;;;;;14.51;100.00;101925.16;10497380;28;20139;-77
2022/07/26 20:46:40;;;;;;;0.25;0.15;;;;;;;14.42;100.00;101926.66;10497456;28;20040;-77
2022/07/26 20:51:42;;;;;;;0.00;0.00;;;;;;;14.23;100.00;101934.75;10502060;28;20049;-76
2022/07/26 20:56:43;;;;;;;0.00;0.00;;;;;;;14.19;100.00;101938.13;10499407;28;20438;-77
2022/07/26 21:01:45;;;;;;;0.00;0.00;;;;;;;13.99;100.00;101942.72;10479905;28;20487;-77
2022/07/26 21:06:47;;;;;;;0.00;0.00;;;;;;;13.86;100.00;101944.97;10489419;28;20044;-77
2022/07/26 21:11:50;;;;;;;0.00;0.00;;;;;;;13.66;100.00;101957.34;10506208;28;20047;-77
2022/07/26 21:16:52;;;;;;;0.00;0.00;;;;;;;13.61;100.00;101959.78;10523594;28;20394;-78
2022/07/26 21:21:55;;;;;;;0.10;0.00;;;;;;;13.31;100.00;101968.31;10527961;28;20060;-78
2022/07/26 21:26:57;;;;;;;0.00;0.00;;;;;;;13.40;100.00;101964.31;10482491;28;20040;-78
2022/07/26 21:31:59;;;;;;;0.00;0.00;;;;;;;13.26;100.00;101966.41;10483529;28;20056;-78
2022/07/26 21:37:02;;;;;;;0.38;0.13;;;;;;;13.25;100.00;101973.31;10482354;28;20488;-77
2022/07/26 21:42:04;;;;;;;0.15;0.05;;;;;;;12.97;100.00;101980.19;10480899;28;20052;-78
2022/07/26 21:47:06;;;;;;;0.00;0.00;;;;;;;12.97;100.00;101982.75;10472225;28;20041;-78
2022/07/26 21:52:07;;;;;;;0.30;0.25;;;;;;;13.04;100.00;101985.56;10492550;28;20076;-78
2022/07/26 21:57:09;;;;;;;0.00;0.00;;;;;;;13.03;100.00;101984.66;10488075;28;20053;-77
2022/07/26 22:02:11;;;;;;;0.10;0.00;;;;;;;13.00;100.00;102002.69;10487202;28;20047;-78
2022/07/26 22:07:12;;;;;;;0.00;0.00;;;;;;;13.13;100.00;101996.22;10492958;28;20048;-78
2022/07/26 22:12:14;;;;;;;0.00;0.00;;;;;;;12.78;100.00;101993.28;10488941;28;20071;-77
2022/07/26 22:17:16;;;;;;;0.20;0.20;;;;;;;12.66;100.00;102005.00;10488737;28;20043;-78
2022/07/26 22:22:17;;;;;;;0.10;0.10;;;;;;;12.68;100.00;102007.63;10486976;28;20056;-77
2022/07/26 22:27:19;;;;;;;0.00;0.00;;;;;;;12.63;100.00;102002.28;10491950;28;20468;-77
2022/07/26 22:32:20;;;;;;;0.00;0.00;;;;;;;12.36;100.00;102005.66;10506912;28;20048;-77
2022/07/26 22:37:22;;;;;;;0.08;0.08;;;;;;;12.31;100.00;102020.13;10490257;28;20037;-77
2022/07/26 22:42:24;;;;;;;0.10;0.10;;;;;;;12.29;100.00;102019.19;10492671;28;20048;-77
2022/07/26 22:47:25;;;;;;;0.00;0.00;;;;;;;12.04;100.00;102022.56;10490013;28;20514;-78
2022/07/26 22:52:27;;;;;;;0.00;0.00;;;;;;;11.83;100.00;102017.41;10523498;28;20113;-77
2022/07/26 22:57:29;;;;;;;0.00;0.00;;;;;;;11.90;100.00;102019.41;10501614;28;20040;-77
2022/07/26 23:02:34;;;;;;;0.00;0.00;;;;;;;11.90;100.00;102014.25;10493117;28;20051;-77